createdAt,value
2022-12-22T00:00:24.764Z,62.53
2022-12-22T00:03:13.532Z,62.79
2022-12-22T00:06:03.665Z,62.58
2022-12-22T00:08:52.077Z,62.88
2022-12-22T00:11:41.016Z,62.90
2022-12-22T00:14:31.909Z,62.71
2022-12-22T00:17:23.437Z,62.67
2022-12-22T00:20:18.098Z,62.69
2022-12-22T00:23:07.251Z,62.74
2022-12-22T00:25:55.651Z,62.73
2022-12-22T00:28:45.606Z,62.84
2022-12-22T00:31:34.770Z,63.20
2022-12-22T00:34:25.665Z,63.12
2022-12-22T00:37:16.372Z,63.21
2022-12-22T00:40:04.873Z,63.38
2022-12-22T00:42:53.260Z,63.31
2022-12-22T00:45:42.690Z,63.37
2022-12-22T00:48:43.647Z,63.35
2022-12-22T00:51:33.439Z,63.39
2022-12-22T00:54:21.811Z,63.29
2022-12-22T00:57:10.319Z,63.30
2022-12-22T00:59:58.594Z,63.44
2022-12-22T01:02:47.537Z,63.48
2022-12-22T01:05:36.387Z,63.29
2022-12-22T01:08:24.742Z,63.23
2022-12-22T01:11:13.348Z,63.11
2022-12-22T01:14:01.677Z,63.00
2022-12-22T01:16:50.022Z,63.10
2022-12-22T01:19:38.625Z,63.29
2022-12-22T01:22:34.063Z,63.03
2022-12-22T01:25:22.776Z,63.18
2022-12-22T01:28:11.455Z,62.88
2022-12-22T01:31:00.064Z,63.08
2022-12-22T01:33:48.430Z,62.93
2022-12-22T01:36:37.766Z,62.75
2022-12-22T01:39:26.581Z,62.91
2022-12-22T01:42:15.145Z,62.62
2022-12-22T01:45:03.680Z,62.67
2022-12-22T01:47:53.784Z,62.61
2022-12-22T01:50:54.143Z,62.84
2022-12-22T01:53:48.248Z,62.34
2022-12-22T01:56:36.988Z,62.41
2022-12-22T01:59:25.568Z,62.49
2022-12-22T02:02:14.295Z,62.67
2022-12-22T02:05:07.435Z,62.62
2022-12-22T02:08:22.350Z,62.49
2022-12-22T02:11:13.548Z,62.47
2022-12-22T02:14:24.785Z,62.39
2022-12-22T02:17:20.727Z,62.41
2022-12-22T02:20:23.705Z,62.32
2022-12-22T02:23:22.040Z,62.39
2022-12-22T02:26:18.507Z,62.41
2022-12-22T02:29:10.506Z,62.37
2022-12-22T02:32:00.317Z,62.34
2022-12-22T02:34:48.724Z,62.23
2022-12-22T02:38:09.209Z,62.55
2022-12-22T02:41:24.164Z,62.25
2022-12-22T02:44:28.913Z,62.16
2022-12-22T02:47:22.979Z,62.24
2022-12-22T02:50:15.939Z,62.24
2022-12-22T02:53:06.789Z,62.37
2022-12-22T02:55:55.529Z,62.20
2022-12-22T02:58:44.814Z,62.03
2022-12-22T03:01:33.481Z,62.14
2022-12-22T03:04:22.232Z,61.90
2022-12-22T03:07:10.671Z,61.79
2022-12-22T15:09:47.181Z,61.67
2022-12-22T15:12:20.744Z,61.57
2022-12-22T15:14:51.423Z,61.23
2022-12-22T15:17:28.047Z,60.93
2022-12-22T15:20:01.432Z,61.25
2022-12-22T15:22:31.613Z,61.07
2022-12-22T15:25:01.806Z,60.98
2022-12-22T15:27:32.506Z,60.72
2022-12-22T15:30:02.605Z,60.41
2022-12-22T15:32:37.861Z,60.88
2022-12-22T15:35:22.163Z,60.59
2022-12-22T15:37:52.564Z,60.60
2022-12-22T15:40:24.875Z,60.57
2022-12-22T15:42:55.324Z,60.53
2022-12-22T15:45:26.054Z,60.62
2022-12-22T15:47:58.463Z,60.97
2022-12-22T15:50:40.034Z,60.98
2022-12-22T15:53:11.607Z,60.79
2022-12-22T15:55:45.580Z,60.61
2022-12-22T15:58:28.267Z,60.73
2022-12-22T16:00:59.029Z,61.46
2022-12-22T16:03:29.403Z,61.09
2022-12-22T16:06:00.270Z,61.02
2022-12-22T16:08:39.914Z,61.07
2022-12-22T16:11:11.528Z,61.15
2022-12-22T16:13:41.540Z,61.12
2022-12-22T16:16:11.751Z,61.44
2022-12-22T16:18:41.828Z,61.34
2022-12-22T16:21:21.110Z,61.48
2022-12-22T16:23:53.172Z,61.16
2022-12-22T16:26:24.508Z,61.32
2022-12-22T16:28:55.253Z,61.38
2022-12-22T16:31:27.645Z,61.43
2022-12-22T16:33:58.017Z,61.43
2022-12-22T16:36:28.058Z,61.48
2022-12-22T16:38:58.118Z,61.34
2022-12-22T16:41:28.534Z,61.26
2022-12-22T16:44:05.685Z,61.24
2022-12-22T16:46:40.315Z,61.11
2022-12-22T16:49:11.943Z,61.07
2022-12-22T16:51:58.336Z,61.19
2022-12-22T16:54:28.533Z,61.30
2022-12-22T16:56:58.950Z,61.18
2022-12-22T16:59:29.088Z,61.13
2022-12-22T17:02:00.602Z,61.19
2022-12-22T17:04:33.403Z,61.06
2022-12-22T17:07:04.701Z,61.16
2022-12-22T17:09:37.312Z,61.22
2022-12-22T17:12:09.469Z,61.11
2022-12-22T17:14:41.750Z,61.17
2022-12-22T17:17:31.779Z,61.09
2022-12-22T17:20:03.819Z,61.09
2022-12-22T17:22:36.340Z,60.89
2022-12-22T17:25:10.113Z,61.00
2022-12-22T17:27:40.160Z,60.91
2022-12-22T17:30:22.673Z,61.00
2022-12-22T17:32:56.318Z,60.85
2022-12-22T17:35:30.986Z,60.90
2022-12-22T17:38:01.496Z,60.93
2022-12-22T17:40:36.484Z,60.96
2022-12-22T17:43:06.857Z,60.96
2022-12-22T17:45:37.054Z,60.81
2022-12-22T17:48:07.914Z,60.58
2022-12-22T17:50:38.709Z,60.66
2022-12-22T17:53:12.827Z,60.63
2022-12-22T17:56:07.621Z,60.83
2022-12-22T17:58:33.645Z,60.86
2022-12-22T18:01:03.788Z,60.99
2022-12-22T18:03:33.939Z,61.03
2022-12-22T18:06:06.115Z,61.12
2022-12-22T18:08:36.280Z,61.20
2022-12-22T18:11:06.554Z,61.33
2022-12-22T18:13:37.487Z,61.41
2022-12-22T18:16:08.235Z,61.46
2022-12-22T18:18:39.470Z,61.61
2022-12-22T18:21:16.455Z,61.60
2022-12-22T18:23:50.484Z,61.64
2022-12-22T18:26:32.091Z,61.73
2022-12-22T18:29:03.967Z,61.84
2022-12-22T18:31:36.388Z,61.73
2022-12-22T18:34:06.729Z,61.87
2022-12-22T18:36:37.146Z,61.95
2022-12-22T18:39:13.223Z,61.72
2022-12-22T18:41:47.116Z,61.87
2022-12-22T18:44:21.938Z,61.85
2022-12-22T18:46:52.424Z,61.84
2022-12-22T18:49:24.016Z,61.87
2022-12-22T18:51:54.345Z,61.92
2022-12-22T18:54:38.555Z,61.89
2022-12-22T18:57:18.908Z,61.98
2022-12-22T18:59:50.429Z,62.04
2022-12-22T19:02:32.161Z,62.02
2022-12-22T19:05:02.374Z,62.07
2022-12-22T19:07:32.415Z,62.03
2022-12-22T19:10:02.822Z,62.08
2022-12-22T19:12:33.969Z,62.06
2022-12-22T19:15:10.423Z,61.94
2022-12-22T19:17:40.559Z,61.94
2022-12-22T19:20:18.977Z,61.98
2022-12-22T19:22:49.407Z,62.04
2022-12-22T19:25:24.352Z,62.10
2022-12-22T19:27:57.495Z,62.01
2022-12-22T19:30:31.301Z,62.00
2022-12-22T19:33:06.255Z,62.04
2022-12-22T19:35:37.627Z,61.95
2022-12-22T19:38:24.201Z,62.06
2022-12-22T19:40:56.802Z,62.09
2022-12-22T19:43:27.045Z,62.08
2022-12-22T19:45:57.870Z,62.15
2022-12-22T19:48:29.446Z,62.00
2022-12-22T19:51:00.844Z,62.13
2022-12-22T19:53:30.614Z,62.15
2022-12-22T19:56:00.684Z,62.08
2022-12-22T19:58:40.333Z,62.15
2022-12-22T20:01:13.984Z,62.03
2022-12-22T20:03:44.585Z,61.97
2022-12-22T20:06:14.800Z,62.01
2022-12-22T20:08:44.909Z,62.10
2022-12-22T20:11:17.834Z,62.04
2022-12-22T20:13:49.129Z,61.88
2022-12-22T20:16:19.883Z,62.00
2022-12-22T20:18:51.240Z,61.94
2022-12-22T20:21:27.737Z,61.97
2022-12-22T20:24:02.067Z,62.23
2022-12-22T20:26:32.413Z,62.12
2022-12-22T20:29:05.675Z,62.37
2022-12-22T20:31:36.040Z,62.23
2022-12-22T20:34:07.064Z,62.06
2022-12-22T20:36:37.416Z,62.18
2022-12-22T20:39:18.347Z,62.31
2022-12-22T20:41:52.965Z,62.32
2022-12-22T20:44:24.380Z,62.16
2022-12-22T20:46:55.152Z,62.25
2022-12-22T20:49:25.358Z,61.99
2022-12-22T20:51:55.651Z,61.97
2022-12-22T20:54:26.099Z,62.04
2022-12-22T20:56:56.457Z,61.89
2022-12-22T20:59:27.491Z,61.85
2022-12-22T21:01:58.448Z,61.92
2022-12-22T21:04:28.689Z,61.91
2022-12-22T21:07:00.213Z,61.84
2022-12-22T21:09:30.705Z,61.77
2022-12-22T21:12:00.736Z,61.90
2022-12-22T21:14:30.763Z,61.89
2022-12-22T21:17:00.982Z,61.90
2022-12-22T21:19:31.198Z,61.82
2022-12-22T21:22:01.417Z,61.85
2022-12-22T21:24:31.613Z,61.67
2022-12-22T21:27:01.804Z,61.81
2022-12-22T21:29:33.569Z,61.58
2022-12-22T21:32:03.823Z,61.58
2022-12-22T21:34:33.886Z,61.72
2022-12-22T21:37:05.758Z,61.63
2022-12-22T21:39:46.786Z,61.45
2022-12-22T21:42:20.085Z,61.53
2022-12-22T21:44:50.311Z,61.47
2022-12-22T21:47:22.923Z,61.54
2022-12-22T21:49:53.143Z,61.52
2022-12-22T21:52:23.475Z,61.61
2022-12-22T21:54:53.628Z,61.54
2022-12-22T21:57:23.665Z,61.50
2022-12-22T21:59:54.328Z,61.52
2022-12-22T22:02:24.685Z,61.38
2022-12-22T22:04:55.504Z,61.45
2022-12-22T22:07:25.928Z,61.49
2022-12-22T22:09:56.343Z,61.55
2022-12-22T22:12:35.380Z,61.60
2022-12-22T22:15:07.489Z,61.61
2022-12-22T22:17:37.780Z,61.87
2022-12-22T22:20:10.766Z,61.61
2022-12-22T22:22:40.911Z,61.67
2022-12-22T22:25:12.608Z,61.65
2022-12-22T22:27:47.519Z,61.88
2022-12-22T22:30:24.125Z,62.17
2022-12-22T22:32:55.211Z,61.99
2022-12-22T22:35:27.019Z,62.24
2022-12-22T22:37:59.792Z,62.24
2022-12-22T22:40:30.409Z,62.12
2022-12-22T22:43:01.223Z,62.14
2022-12-22T22:45:31.673Z,61.95
2022-12-22T22:48:06.266Z,61.98
2022-12-22T22:50:43.438Z,62.29
2022-12-22T22:53:15.128Z,62.08
2022-12-22T22:55:45.546Z,62.19
2022-12-22T22:58:15.762Z,62.21
2022-12-22T23:01:56.494Z,61.74
2022-12-22T23:04:26.855Z,61.63
2022-12-22T23:06:57.203Z,61.87
2022-12-22T23:09:27.484Z,62.03
2022-12-22T23:11:57.678Z,62.18
2022-12-22T23:14:27.956Z,62.39
2022-12-22T23:16:58.258Z,62.19
2022-12-22T23:19:29.704Z,62.00
2022-12-22T23:21:59.607Z,62.16
2022-12-22T23:24:30.853Z,62.20
2022-12-22T23:27:01.169Z,62.05
2022-12-22T23:29:31.480Z,62.13
2022-12-22T23:32:04.709Z,62.17
2022-12-22T23:34:35.309Z,61.99
2022-12-22T23:37:06.334Z,62.15
2022-12-22T23:39:36.454Z,62.09
2022-12-22T23:42:06.576Z,61.96
2022-12-22T23:44:37.623Z,62.04
2022-12-22T23:47:08.087Z,62.03
2022-12-22T23:49:38.243Z,62.15
2022-12-22T23:52:08.285Z,62.07
2022-12-22T23:54:38.290Z,62.14
2022-12-22T23:57:08.415Z,62.02
2022-12-22T23:59:38.477Z,62.32
